Time;durP1;ratioP1;P1;durP2;ratioP2;P2;SDS_P1;SDS_P2;PMS_P1;PMS_P2;Temp;Humidity;BMP_temperature;BMP_pressure;BME280_temperature;BME280_humidity;BME280_pressure;Samples;Min_cycle;Max_cycle;Signal;HPM_P1;HPM_P2
2022/02/17 00:02:12;;;;;;;38.02;13.90;;;;;;;3.40;100.00;100960.51;1598373;89;21069;-90
2022/02/17 00:04:38;;;;;;;40.33;14.83;;;;;;;3.42;100.00;100965.13;1601913;89;21077;-90
2022/02/17 00:07:04;;;;;;;42.55;14.58;;;;;;;3.44;100.00;100946.27;1601707;89;20926;-90
2022/02/17 00:09:30;;;;;;;40.98;14.30;;;;;;;3.44;100.00;100952.41;1601903;89;21679;-90
2022/02/17 00:11:56;;;;;;;36.10;13.38;;;;;;;3.45;100.00;100949.26;1601877;89;21037;-90
2022/02/17 00:14:23;;;;;;;37.73;14.43;;;;;;;3.45;100.00;100948.73;1609091;87;20951;-90
2022/02/17 00:16:52;;;;;;;44.20;13.98;;;;;;;3.45;100.00;100946.08;1633107;87;21967;-90
2022/02/17 00:19:17;;;;;;;37.80;13.50;;;;;;;3.46;100.00;100942.89;1633159;87;21094;-90
2022/02/17 00:21:44;;;;;;;39.50;14.18;;;;;;;3.45;100.00;100934.60;1633466;87;21000;-90
2022/02/17 00:24:10;;;;;;;37.00;14.10;;;;;;;3.45;100.00;100931.42;1633405;87;21061;-90
2022/02/17 00:26:36;;;;;;;45.25;14.98;;;;;;;3.46;100.00;100936.23;1633760;87;20931;-90
2022/02/17 00:29:02;;;;;;;44.73;15.23;;;;;;;3.45;100.00;100927.42;1610973;87;21539;-90
2022/02/17 00:31:28;;;;;;;37.45;14.80;;;;;;;3.44;100.00;100923.10;1633628;87;20923;-90
2022/02/17 00:33:54;;;;;;;36.60;13.90;;;;;;;3.47;100.00;100917.88;1633665;87;20931;-89
2022/02/17 00:36:20;;;;;;;46.20;14.68;;;;;;;3.42;100.00;100902.53;1641466;85;20886;-90
2022/02/17 00:38:46;;;;;;;43.48;15.20;;;;;;;3.52;100.00;100912.77;1672888;85;21802;-90
2022/02/17 00:41:12;;;;;;;37.60;13.68;;;;;;;3.52;100.00;100901.59;1672740;84;21118;-90
2022/02/17 00:43:38;;;;;;;45.03;14.87;;;;;;;3.53;100.00;100891.75;1672581;85;21010;-90
2022/02/17 00:46:04;;;;;;;44.23;15.10;;;;;;;3.54;100.00;100895.55;1672575;85;20906;-90
2022/02/17 00:48:30;;;;;;;42.95;14.78;;;;;;;3.55;100.00;100898.52;1672610;85;20882;-90
2022/02/17 00:50:56;;;;;;;40.50;14.83;;;;;;;3.54;100.00;100892.89;1672431;85;21592;-90
2022/02/17 00:53:21;;;;;;;42.73;14.55;;;;;;;3.57;100.00;100898.33;1672801;85;21182;-90
2022/02/17 00:55:48;;;;;;;42.90;15.72;;;;;;;3.56;100.00;100889.52;1672533;85;20914;-90
2022/02/17 00:58:13;;;;;;;42.55;14.90;;;;;;;3.57;100.00;100891.14;1672655;85;21557;-90
2022/02/17 01:00:39;;;;;;;43.30;14.93;;;;;;;3.59;100.00;100885.63;1674538;84;20981;-90
2022/02/17 01:03:05;;;;;;;40.10;15.13;;;;;;;3.59;100.00;100887.77;1729433;83;21016;-90
2022/02/17 01:05:32;;;;;;;41.60;15.28;;;;;;;3.61;100.00;100880.88;1729038;83;21019;-89
2022/02/17 01:07:59;;;;;;;43.05;15.78;;;;;;;3.60;100.00;100877.92;1729060;83;20992;-90
2022/02/17 01:10:25;;;;;;;52.53;16.27;;;;;;;3.60;100.00;100872.59;1729371;83;21056;-90
2022/02/17 01:12:51;;;;;;;45.20;15.93;;;;;;;3.63;100.00;100870.84;1729212;83;21469;-90
2022/02/17 01:15:17;;;;;;;44.95;16.20;;;;;;;3.64;100.00;100868.48;1729318;83;20917;-91
2022/02/17 01:17:42;;;;;;;44.65;15.50;;;;;;;3.67;100.00;100864.58;1729102;82;21685;-90
2022/02/17 01:20:10;;;;;;;44.25;15.78;;;;;;;3.67;100.00;100861.40;1729111;83;21483;-89
2022/02/17 01:22:36;;;;;;;46.73;16.60;;;;;;;3.69;100.00;100862.02;1729253;83;21127;-91
2022/02/17 01:25:02;;;;;;;42.05;14.20;;;;;;;3.70;100.00;100864.17;1729316;83;20921;-91
2022/02/17 01:27:28;;;;;;;44.67;15.58;;;;;;;3.70;100.00;100860.98;1729309;83;21529;-90
2022/02/17 01:29:54;;;;;;;47.08;15.53;;;;;;;3.71;100.00;100866.64;1729279;83;21175;-91
2022/02/17 01:32:20;;;;;;;42.55;15.40;;;;;;;3.71;100.00;100866.64;1729041;83;20990;-91
2022/02/17 01:34:46;;;;;;;46.48;16.55;;;;;;;3.72;100.00;100868.27;1729310;83;21861;-91
2022/02/17 01:37:12;;;;;;;42.58;16.02;;;;;;;3.73;100.00;100873.89;1729156;83;21032;-90
2022/02/17 01:39:38;;;;;;;44.80;16.85;;;;;;;3.72;100.00;100875.45;1729320;83;21694;-91
2022/02/17 01:42:10;;;;;;;46.95;15.23;;;;;;;3.73;100.00;100873.89;1722748;82;21185;-91
2022/02/17 01:44:36;;;;;;;43.50;15.35;;;;;;;3.73;100.00;100875.23;1630491;86;21101;-90
2022/02/17 01:47:11;;;;;;;47.73;16.05;;;;;;;3.73;100.00;100881.08;1630213;86;21166;-90
2022/02/17 01:49:37;;;;;;;45.43;15.55;;;;;;;3.73;100.00;100881.08;1630794;86;21149;-90
2022/02/17 01:52:04;;;;;;;44.63;16.05;;;;;;;3.72;100.00;100878.11;1630506;86;21606;-90
2022/02/17 01:54:32;;;;;;;46.15;15.72;;;;;;;3.71;100.00;100876.48;1630480;86;21278;-90
2022/02/17 01:57:00;;;;;;;40.15;15.75;;;;;;;3.73;100.00;100878.41;1630411;85;21007;-90
2022/02/17 01:59:27;;;;;;;45.00;15.88;;;;;;;3.72;100.00;100875.45;1630288;86;21042;-91
2022/02/17 02:01:54;;;;;;;50.60;17.50;;;;;;;3.71;100.00;100880.48;1634306;86;21097;-91
2022/02/17 02:04:20;;;;;;;49.18;17.05;;;;;;;3.71;100.00;100869.83;1638694;86;21105;-90
2022/02/17 02:06:46;;;;;;;46.35;17.25;;;;;;;3.72;100.00;100868.78;1638399;85;21007;-90
2022/02/17 02:09:16;;;;;;;52.13;16.48;;;;;;;3.74;100.00;100858.75;1638502;85;21039;-91
2022/02/17 02:11:40;;;;;;;48.75;17.75;;;;;;;3.72;100.00;100861.61;1635075;86;21034;-90
2022/02/17 02:14:17;;;;;;;48.78;17.20;;;;;;;3.72;100.00;100857.61;1638221;85;20983;-90
2022/02/17 02:16:44;;;;;;;57.88;18.07;;;;;;;3.73;100.00;100861.09;1638421;85;21093;-90
2022/02/17 02:19:11;;;;;;;57.67;19.07;;;;;;;3.77;100.00;100859.66;1638370;85;21047;-90
2022/02/17 02:21:37;;;;;;;47.70;17.05;;;;;;;3.80;100.00;100857.91;1638167;85;21039;-90
2022/02/17 02:24:05;;;;;;;54.10;18.87;;;;;;;3.80;100.00;100857.39;1638288;85;21831;-90
2022/02/17 02:26:31;;;;;;;51.60;16.80;;;;;;;3.82;100.00;100863.83;1638280;86;21097;-91
2022/02/17 02:28:59;;;;;;;44.10;16.97;;;;;;;3.85;100.00;100855.41;1638275;85;21145;-91
2022/02/17 02:31:25;;;;;;;48.48;17.82;;;;;;;3.88;100.00;100859.00;1638461;85;21240;-90
2022/02/17 02:33:51;;;;;;;51.08;17.87;;;;;;;3.86;100.00;100855.74;1638416;85;21003;-90
2022/02/17 02:36:17;;;;;;;49.38;16.32;;;;;;;3.88;100.00;100845.67;1638347;85;20978;-90
2022/02/17 02:38:43;;;;;;;54.23;17.30;;;;;;;3.90;100.00;100852.95;1634810;85;20884;-90
2022/02/17 02:41:09;;;;;;;44.63;15.83;;;;;;;3.92;100.00;100849.57;1679922;81;21077;-90
2022/02/17 02:43:36;;;;;;;46.18;16.75;;;;;;;3.95;100.00;100846.48;1733756;81;21104;-90
2022/02/17 02:46:04;;;;;;;44.08;15.70;;;;;;;3.96;100.00;100840.63;1733627;81;21003;-90
2022/02/17 02:48:30;;;;;;;44.53;16.57;;;;;;;3.99;100.00;100838.36;1733726;81;21003;-90
2022/02/17 02:50:56;;;;;;;43.60;15.18;;;;;;;4.03;100.00;100846.75;1733979;81;20943;-90
2022/02/17 02:53:22;;;;;;;41.50;14.40;;;;;;;4.06;100.00;100837.84;1734004;81;20979;-90
2022/02/17 02:55:49;;;;;;;42.43;15.58;;;;;;;4.09;100.00;100838.75;1733784;81;21919;-90
2022/02/17 02:58:18;;;;;;;42.83;15.18;;;;;;;4.14;100.00;100835.95;1733480;81;21615;-90
2022/02/17 03:00:47;;;;;;;46.85;15.83;;;;;;;4.17;100.00;100833.67;1727262;81;21003;-90
2022/02/17 03:03:13;;;;;;;45.70;15.65;;;;;;;4.17;100.00;100835.01;1716136;81;20973;-90
2022/02/17 03:08:08;;;;;;;48.48;15.70;;;;;;;4.21;100.00;100828.76;1656747;86;20948;-89
2022/02/17 03:10:34;;;;;;;42.05;15.08;;;;;;;4.21;100.00;100827.42;1656787;86;21552;-90
2022/02/17 03:13:00;;;;;;;48.05;15.40;;;;;;;4.19;100.00;100829.48;1656637;85;21027;-89
2022/02/17 03:15:27;;;;;;;41.35;15.43;;;;;;;4.14;100.00;100828.77;1656992;86;21079;-90
2022/02/17 03:17:54;;;;;;;49.42;16.55;;;;;;;4.12;100.00;100821.52;1656838;86;21012;-89
2022/02/17 03:20:21;;;;;;;48.50;16.25;;;;;;;4.10;100.00;100818.23;1657011;86;21088;-90
2022/02/17 03:22:47;;;;;;;42.70;15.60;;;;;;;4.08;100.00;100814.42;1656983;85;20999;-90
2022/02/17 03:25:15;;;;;;;40.88;14.90;;;;;;;4.07;100.00;100814.66;1657228;86;20869;-89
2022/02/17 03:27:42;;;;;;;42.25;14.98;;;;;;;4.04;100.00;100806.56;1657029;86;20988;-90
2022/02/17 03:30:11;;;;;;;50.00;17.30;;;;;;;4.03;100.00;100805.42;1657124;86;21130;-91
2022/02/17 03:32:38;;;;;;;49.23;17.32;;;;;;;4.03;100.00;100806.75;1656891;86;21980;-90
2022/02/17 03:35:07;;;;;;;49.65;17.67;;;;;;;4.03;100.00;100798.27;1657056;86;21016;-90
2022/02/17 03:37:34;;;;;;;55.45;18.45;;;;;;;4.04;100.00;100789.22;1656740;86;21063;-90
2022/02/17 03:40:00;;;;;;;53.95;19.57;;;;;;;4.06;100.00;100797.03;1656898;86;21164;-89
2022/02/17 03:42:25;;;;;;;55.67;18.48;;;;;;;4.04;100.00;100789.74;1656932;86;21654;-89
2022/02/17 03:44:51;;;;;;;59.33;19.87;;;;;;;3.99;100.00;100787.70;1657005;86;21103;-89
2022/02/17 03:47:17;;;;;;;59.77;20.12;;;;;;;4.01;100.00;100788.84;1656986;86;20881;-90
2022/02/17 03:49:43;;;;;;;63.28;21.25;;;;;;;3.98;100.00;100775.41;1657006;86;20975;-90
2022/02/17 03:52:09;;;;;;;59.83;20.23;;;;;;;3.95;100.00;100773.16;1656795;86;20850;-90
2022/02/17 03:54:35;;;;;;;60.00;20.70;;;;;;;3.93;100.00;100770.41;1657093;86;21007;-91
2022/02/17 03:57:01;;;;;;;55.45;20.88;;;;;;;3.93;100.00;100766.41;1656847;86;21074;-90
2022/02/17 03:59:27;;;;;;;63.00;19.00;;;;;;;3.93;100.00;100760.55;1657321;86;20984;-90
2022/02/17 04:01:53;;;;;;;58.02;19.85;;;;;;;3.95;100.00;100758.50;1654609;86;21043;-90
2022/02/17 04:04:19;;;;;;;55.75;19.00;;;;;;;3.95;100.00;100758.50;1663792;83;21630;-90
2022/02/17 04:06:45;;;;;;;56.90;19.00;;;;;;;3.96;100.00;100753.46;1715289;83;20878;-90
2022/02/17 04:09:11;;;;;;;47.10;16.27;;;;;;;3.96;100.00;100745.47;1715603;83;20968;-91
2022/02/17 04:11:37;;;;;;;50.43;17.32;;;;;;;3.95;100.00;100749.69;1715564;83;20877;-90
2022/02/17 04:14:03;;;;;;;42.98;16.65;;;;;;;3.93;100.00;100743.22;1715531;83;20874;-90
2022/02/17 04:16:30;;;;;;;48.38;17.23;;;;;;;3.94;100.00;100739.55;1715443;83;21092;-90
2022/02/17 04:18:57;;;;;;;50.70;17.60;;;;;;;3.94;100.00;100744.88;1715501;83;20942;-92
2022/02/17 04:21:23;;;;;;;42.80;15.93;;;;;;;3.94;100.00;100744.88;1715089;83;21197;-90
2022/02/17 04:23:49;;;;;;;57.70;17.98;;;;;;;3.92;100.00;100738.94;1715396;83;20909;-91
2022/02/17 04:26:19;;;;;;;46.10;16.30;;;;;;;3.94;100.00;100734.70;1715601;83;21004;-91
2022/02/17 04:28:47;;;;;;;48.80;16.57;;;;;;;3.92;100.00;100730.94;1715482;83;21739;-91
2022/02/17 04:31:13;;;;;;;52.48;17.70;;;;;;;3.92;100.00;100726.94;1715302;83;21099;-90
2022/02/17 04:33:42;;;;;;;45.90;16.77;;;;;;;3.93;100.00;100727.75;1715385;83;21121;-90
2022/02/17 04:36:08;;;;;;;51.10;17.73;;;;;;;3.89;100.00;100722.03;1715434;83;21005;-91
2022/02/17 04:38:34;;;;;;;53.25;17.20;;;;;;;3.87;100.00;100724.89;1715696;83;21012;-91
2022/02/17 04:43:44;;;;;;;50.55;17.15;;;;;;;3.84;100.00;100713.84;1715210;83;20948;-91
2022/02/17 04:46:11;;;;;;;44.90;14.98;;;;;;;3.82;100.00;100714.07;1715280;83;21145;-90
2022/02/17 04:48:38;;;;;;;48.17;16.52;;;;;;;3.80;100.00;100711.31;1715459;83;21040;-91
2022/02/17 04:51:04;;;;;;;50.95;16.93;;;;;;;3.78;100.00;100710.17;1715405;83;21063;-91
2022/02/17 04:53:31;;;;;;;48.75;16.90;;;;;;;3.76;100.00;100701.56;1715463;83;21530;-90
2022/02/17 04:55:57;;;;;;;45.00;16.10;;;;;;;3.74;100.00;100700.98;1715269;83;21080;-90
2022/02/17 04:58:23;;;;;;;47.83;17.05;;;;;;;3.74;100.00;100701.50;1714564;83;21971;-91
2022/02/17 05:00:49;;;;;;;48.08;16.30;;;;;;;3.74;100.00;100689.50;1715229;83;20913;-91
2022/02/17 05:03:15;;;;;;;47.60;16.00;;;;;;;3.73;100.00;100690.52;1727006;82;21092;-90
2022/02/17 05:05:41;;;;;;;55.20;18.05;;;;;;;3.73;100.00;100686.52;1700192;82;20996;-90
2022/02/17 05:08:08;;;;;;;50.35;16.37;;;;;;;3.72;100.00;100686.23;1731188;82;20913;-90
2022/02/17 05:10:35;;;;;;;56.55;18.57;;;;;;;3.72;100.00;100682.23;1731242;81;21100;-90
2022/02/17 05:13:01;;;;;;;52.17;18.87;;;;;;;3.68;100.00;100679.66;1729731;82;21032;-90
2022/02/17 05:15:28;;;;;;;55.65;18.82;;;;;;;3.68;100.00;100682.33;1731042;82;21012;-89
2022/02/17 05:17:53;;;;;;;56.10;18.70;;;;;;;3.67;100.00;100675.38;1731099;82;21027;-89
2022/02/17 05:20:20;;;;;;;49.63;17.50;;;;;;;3.70;100.00;100674.95;1731203;82;20901;-89
2022/02/17 05:22:46;;;;;;;59.58;19.17;;;;;;;3.69;100.00;100674.66;1731150;82;21255;-88
2022/02/17 05:25:13;;;;;;;54.38;18.32;;;;;;;3.71;100.00;100677.94;1730818;82;21083;-89
2022/02/17 05:27:41;;;;;;;53.95;18.90;;;;;;;3.70;100.00;100670.44;1731166;81;21001;-88
2022/02/17 05:30:08;;;;;;;54.67;17.95;;;;;;;3.70;100.00;100665.10;1731028;82;21020;-90
2022/02/17 05:32:42;;;;;;;62.30;19.30;;;;;;;3.72;100.00;100664.91;1731095;81;21106;-90
2022/02/17 05:35:10;;;;;;;59.60;17.95;;;;;;;3.73;100.00;100658.53;1731428;81;21774;-89
2022/02/17 05:37:38;;;;;;;54.27;18.12;;;;;;;3.75;100.00;100653.82;1724421;82;21489;-91
2022/02/17 05:40:08;;;;;;;51.08;18.30;;;;;;;3.75;100.00;100647.97;1731126;82;21055;-90
2022/02/17 05:42:35;;;;;;;52.83;17.75;;;;;;;3.77;100.00;100644.58;1730951;82;21044;-90
2022/02/17 05:45:02;;;;;;;61.42;18.73;;;;;;;3.77;100.00;100644.58;1731192;82;21110;-89
2022/02/17 05:47:27;;;;;;;47.43;16.62;;;;;;;3.77;100.00;100639.25;1731135;82;21097;-88
2022/02/17 05:49:53;;;;;;;49.65;16.77;;;;;;;3.79;100.00;100627.03;1731119;82;21678;-88
2022/02/17 05:52:19;;;;;;;49.55;18.30;;;;;;;3.81;100.00;100628.98;1724216;82;20956;-89
2022/02/17 05:54:45;;;;;;;51.55;17.05;;;;;;;3.81;100.00;100624.98;1731262;82;20881;-88
2022/02/17 05:57:11;;;;;;;52.53;17.90;;;;;;;3.79;100.00;100621.18;1730871;82;21063;-89
2022/02/17 05:59:43;;;;;;;55.28;16.27;;;;;;;3.81;100.00;100624.98;1731563;82;20950;-88
2022/02/17 06:02:10;;;;;;;48.48;17.32;;;;;;;3.79;100.00;100615.84;1730797;82;21134;-88
2022/02/17 06:04:36;;;;;;;49.50;15.80;;;;;;;3.84;100.00;100615.22;1662554;85;21970;-87
2022/02/17 06:07:03;;;;;;;49.88;16.77;;;;;;;3.85;100.00;100614.17;1662442;86;20976;-90
2022/02/17 06:09:29;;;;;;;50.92;14.95;;;;;;;3.86;100.00;100613.98;1662442;86;20953;-91
2022/02/17 06:11:55;;;;;;;43.87;16.27;;;;;;;3.87;100.00;100611.60;1662266;86;21876;-91
2022/02/17 06:14:21;;;;;;;48.42;15.88;;;;;;;3.89;100.00;100606.59;1662352;86;20980;-91
2022/02/17 06:16:47;;;;;;;41.85;15.40;;;;;;;3.91;100.00;100606.65;1662476;85;21659;-90
2022/02/17 06:19:13;;;;;;;49.45;16.48;;;;;;;3.93;100.00;100603.26;1662306;86;20917;-91
2022/02/17 06:21:39;;;;;;;50.73;16.17;;;;;;;3.97;100.00;100600.97;1662315;86;21036;-90
2022/02/17 06:24:05;;;;;;;39.00;14.85;;;;;;;4.01;100.00;100593.67;1662301;86;21400;-90
2022/02/17 06:26:32;;;;;;;43.23;15.43;;;;;;;4.03;100.00;100601.44;1662265;86;21034;-91
2022/02/17 06:28:58;;;;;;;46.85;14.40;;;;;;;4.06;100.00;100600.52;1662578;86;21024;-90
2022/02/17 06:31:25;;;;;;;38.67;14.15;;;;;;;4.09;100.00;100586.75;1662035;86;21010;-90
2022/02/17 06:33:51;;;;;;;35.38;12.98;;;;;;;4.12;100.00;100590.83;1662243;86;21040;-91
2022/02/17 06:36:17;;;;;;;41.28;13.72;;;;;;;4.15;100.00;100585.55;1662321;86;21750;-90
2022/02/17 06:38:44;;;;;;;37.33;13.68;;;;;;;4.18;100.00;100577.96;1661888;86;21040;-91
2022/02/17 06:41:10;;;;;;;37.60;13.75;;;;;;;4.21;100.00;100574.86;1658526;86;21023;-91
2022/02/17 06:43:36;;;;;;;33.08;12.33;;;;;;;4.24;100.00;100566.94;1662363;86;20917;-92
2022/02/17 06:46:04;;;;;;;37.33;13.50;;;;;;;4.26;100.00;100563.52;1662056;86;21075;-90
2022/02/17 06:48:30;;;;;;;36.85;12.93;;;;;;;4.28;100.00;100560.94;1662416;86;21912;-90
2022/02/17 06:50:57;;;;;;;35.03;13.10;;;;;;;4.31;100.00;100557.02;1639402;86;21379;-89
2022/02/17 06:53:23;;;;;;;38.65;13.30;;;;;;;4.36;100.00;100549.70;1662315;86;21107;-90
2022/02/17 06:55:49;;;;;;;34.35;12.75;;;;;;;4.39;100.00;100542.06;1662616;86;20933;-92
2022/02/17 06:58:16;;;;;;;37.93;13.15;;;;;;;4.42;100.00;100544.30;1659972;84;21094;-92
2022/02/17 07:00:43;;;;;;;35.50;12.15;;;;;;;4.44;100.00;100528.05;1647374;82;21309;-92
2022/02/17 07:03:09;;;;;;;39.63;14.15;;;;;;;4.44;100.00;100518.22;1725631;81;21009;-93
2022/02/17 07:05:36;;;;;;;32.03;12.23;;;;;;;4.51;100.00;100518.14;1719802;83;21008;-92
2022/02/17 07:08:03;;;;;;;34.03;11.73;;;;;;;4.54;100.00;100515.84;1719728;83;21560;-92
2022/02/17 07:13:14;;;;;;;37.98;13.28;;;;;;;4.60;100.00;100510.66;1719883;83;21552;-91
2022/02/17 07:17:21;;;;;;;31.15;12.53;;;;;;;4.64;100.00;100499.82;1843888;74;23471;-92
2022/02/17 07:19:48;;;;;;;43.00;13.58;;;;;;;4.66;100.00;100504.42;1827113;76;21038;-91
2022/02/17 07:22:14;;;;;;;31.57;12.73;;;;;;;4.70;100.00;100500.27;1849192;76;21240;-90
2022/02/17 07:24:40;;;;;;;33.83;12.63;;;;;;;4.75;100.00;100502.56;1843648;76;21022;-93
2022/02/17 07:27:09;;;;;;;35.17;13.10;;;;;;;4.82;100.00;100495.80;1834122;76;21058;-91
2022/02/17 07:29:36;;;;;;;30.85;12.05;;;;;;;4.88;100.00;100493.59;1805382;78;21138;-93
2022/02/17 07:32:06;;;;;;;31.07;12.15;;;;;;;4.96;100.00;100490.59;1802942;78;21061;-94
2022/02/17 07:34:33;;;;;;;33.18;12.68;;;;;;;5.04;100.00;100484.14;1784592;79;21143;-93
2022/02/17 07:36:59;;;;;;;38.38;13.50;;;;;;;5.16;100.00;100476.17;1780041;78;21083;-94
2022/02/17 07:39:26;;;;;;;34.48;12.55;;;;;;;5.22;100.00;100469.39;1792188;78;21014;-93
2022/02/17 07:41:52;;;;;;;32.65;11.65;;;;;;;5.29;100.00;100459.94;1793209;78;21145;-93
2022/02/17 07:44:18;;;;;;;33.38;12.23;;;;;;;5.34;100.00;100461.41;1783823;79;21031;-94
2022/02/17 07:46:45;;;;;;;34.98;12.82;;;;;;;5.42;100.00;100460.28;1798272;79;22325;-94
2022/02/17 07:49:11;;;;;;;44.00;14.25;;;;;;;5.41;100.00;100442.10;1764577;80;21023;-93
2022/02/17 07:51:38;;;;;;;34.63;13.03;;;;;;;5.56;100.00;100460.37;1788811;80;21012;-94
2022/02/17 07:54:04;;;;;;;36.28;12.60;;;;;;;5.60;100.00;100458.86;1788418;80;21083;-94
2022/02/17 07:56:30;;;;;;;31.60;12.20;;;;;;;5.62;100.00;100446.61;1789063;80;21528;-94
2022/02/17 07:58:56;;;;;;;35.00;13.05;;;;;;;5.63;100.00;100438.88;1788822;80;21072;-95
2022/02/17 08:01:27;;;;;;;36.55;12.37;;;;;;;5.66;100.00;100434.41;1788869;80;21015;-95
2022/02/17 08:03:57;;;;;;;37.15;12.43;;;;;;;5.67;100.00;100440.84;1733474;82;21105;-96
2022/02/17 08:06:24;;;;;;;34.30;11.38;;;;;;;5.76;100.00;100442.65;1704908;84;21093;-96
2022/02/17 08:08:52;;;;;;;29.98;11.70;;;;;;;5.82;100.00;100445.73;1658885;84;21076;-96
2022/02/17 08:11:18;;;;;;;30.88;11.30;;;;;;;5.89;100.00;100443.77;1670355;85;21933;-96
2022/02/17 08:13:44;;;;;;;34.33;13.53;;;;;;;5.91;100.00;100432.83;1642047;87;21114;-95
2022/02/17 08:16:13;;;;;;;32.67;12.28;;;;;;;5.94;100.00;100428.91;1662232;85;21040;-96
2022/02/17 08:18:39;;;;;;;30.10;11.25;;;;;;;5.98;100.00;100436.25;1638382;87;21015;-96
2022/02/17 08:21:06;;;;;;;30.77;11.28;;;;;;;6.09;100.00;100422.05;1646845;87;21689;-96
2022/02/17 08:23:36;;;;;;;28.32;10.85;;;;;;;6.08;100.00;100404.89;1614928;87;21081;-96
2022/02/17 08:26:21;;;;;;;29.12;11.45;;;;;;;6.33;100.00;100428.71;1626648;87;21076;-96
2022/02/17 08:28:48;;;;;;;32.05;11.43;;;;;;;6.46;100.00;100427.63;1613337;87;21062;-94
2022/02/17 08:31:16;;;;;;;27.98;11.35;;;;;;;6.57;100.00;100413.41;1611184;87;21632;-96
2022/02/17 08:33:43;;;;;;;35.13;10.70;;;;;;;6.64;100.00;100415.94;1625260;86;21119;-95
2022/02/17 08:36:09;;;;;;;35.55;11.45;;;;;;;6.61;100.00;100411.86;1630516;86;21483;-96
2022/02/17 08:38:50;;;;;;;;;;;;;;;;;;;;;
2022/02/17 08:41:06;;;;;;;34.45;13.08;;;;;;;6.65;100.00;100392.95;1580061;90;21063;-96
2022/02/17 08:43:34;;;;;;;31.37;11.70;;;;;;;6.77;100.00;100392.38;1568710;91;21147;-96
2022/02/17 08:46:01;;;;;;;32.58;11.33;;;;;;;6.80;100.00;100385.20;1568852;91;21093;-95
2022/02/17 08:48:28;;;;;;;35.58;12.65;;;;;;;6.88;100.00;100369.25;1569557;91;21291;-96
2022/02/17 08:50:54;;;;;;;28.95;11.55;;;;;;;7.06;100.00;100346.81;1569340;91;21066;-96
2022/02/17 08:53:20;;;;;;;41.58;15.70;;;;;;;7.33;100.00;100349.66;1569382;90;21632;-95
2022/02/17 08:55:47;;;;;;;35.10;12.75;;;;;;;7.64;100.00;100338.03;1569841;91;21060;-95
2022/02/17 08:58:13;;;;;;;32.63;12.05;;;;;;;7.81;100.00;100340.69;1569241;91;21136;-96
2022/02/17 09:00:39;;;;;;;31.55;11.97;;;;;;;7.96;100.00;100332.84;1580790;90;21604;-96
2022/02/17 09:06:19;;;;;;;34.95;12.10;;;;;;;8.46;100.00;100343.94;1556865;90;21160;-96
2022/02/17 09:08:45;;;;;;;30.17;10.78;;;;;;;8.67;100.00;100319.44;1507663;92;21185;-95
2022/02/17 09:11:16;;;;;;;24.45;10.28;;;;;;;8.83;100.00;100329.82;1499549;92;21145;-96
2022/02/17 09:13:43;;;;;;;34.70;13.30;;;;;;;8.90;100.00;100319.66;1481031;95;21218;-95
2022/02/17 09:16:12;;;;;;;29.85;10.70;;;;;;;9.02;100.00;100310.09;1513801;93;21062;-95
2022/02/17 09:18:39;;;;;;;30.72;11.08;;;;;;;9.09;100.00;100304.78;1522377;94;21058;-93
2022/02/17 09:21:05;;;;;;;25.65;9.43;;;;;;;9.17;100.00;100298.10;1534457;92;21124;-95
2022/02/17 09:23:33;;;;;;;27.77;10.40;;;;;;;9.28;100.00;100303.83;1546129;91;21178;-95
2022/02/17 09:25:59;;;;;;;25.82;9.33;;;;;;;9.40;100.00;100294.77;1527939;92;21271;-95
2022/02/17 09:28:26;;;;;;;23.50;9.03;;;;;;;9.49;100.00;100289.98;1543409;92;21102;-95
2022/02/17 09:30:52;;;;;;;21.95;9.35;;;;;;;9.48;100.00;100275.46;1540433;91;21642;-94
2022/02/17 09:33:18;;;;;;;25.25;9.05;;;;;;;9.50;100.00;100279.52;1504854;95;21096;-93
2022/02/17 09:35:44;;;;;;;21.97;8.85;;;;;;;9.51;100.00;100284.36;1505382;95;21654;-95
2022/02/17 09:38:13;;;;;;;23.80;8.73;;;;;;;9.49;100.00;100287.30;1503400;94;22381;-95
2022/02/17 09:40:43;;;;;;;21.30;8.23;;;;;;;9.39;100.00;100267.61;1521639;92;21996;-95
2022/02/17 09:43:11;;;;;;;22.35;8.85;;;;;;;9.34;100.00;100279.14;1530777;93;21083;-95
2022/02/17 09:45:43;;;;;;;20.40;8.40;;;;;;;9.35;100.00;100268.64;1515578;93;21149;-94
2022/02/17 09:48:12;;;;;;;22.62;8.50;;;;;;;9.51;100.00;100263.64;1512552;92;21104;-93
2022/02/17 09:50:39;;;;;;;19.50;7.87;;;;;;;9.62;100.00;100249.72;1450536;95;21167;-92
2022/02/17 09:53:05;;;;;;;20.65;8.28;;;;;;;9.71;100.00;100245.45;1446770;97;21659;-94
2022/02/17 09:55:32;;;;;;;18.42;7.65;;;;;;;9.69;100.00;100242.20;1492913;94;22317;-92
2022/02/17 09:57:58;;;;;;;21.12;8.30;;;;;;;9.70;100.00;100237.09;1492856;94;21142;-93
2022/02/17 10:00:24;;;;;;;21.68;8.05;;;;;;;9.73;100.00;100225.00;1492755;94;21163;-92
2022/02/17 10:02:51;;;;;;;18.05;7.47;;;;;;;9.78;100.00;100235.78;1575532;87;21520;-92
2022/02/17 10:05:18;;;;;;;22.37;9.15;;;;;;;9.92;100.00;100230.19;1640930;85;21084;-91
2022/02/17 10:07:45;;;;;;;26.37;9.95;;;;;;;10.01;100.00;100219.18;1651829;84;21151;-94
2022/02/17 10:10:22;;;;;;;22.17;8.35;;;;;;;10.12;100.00;100204.41;1666506;81;21123;-93
2022/02/17 10:13:04;;;;;;;25.00;8.88;;;;;;;10.18;100.00;100191.23;1758406;81;21643;-91
2022/02/17 10:15:34;;;;;;;21.05;8.13;;;;;;;10.19;100.00;100182.87;1758427;81;21126;-91
2022/02/17 10:18:18;;;;;;;22.90;7.53;;;;;;;10.27;100.00;100171.34;1758362;81;21192;-91
2022/02/17 10:21:07;;;;;;;21.00;8.10;;;;;;;10.24;100.00;100175.34;1758604;81;21054;-90
2022/02/17 10:23:38;;;;;;;18.92;7.55;;;;;;;10.21;100.00;100168.61;1758507;81;21516;-93
2022/02/17 10:26:14;;;;;;;17.95;7.50;;;;;;;10.21;100.00;100176.69;1704198;82;21022;-94
2022/02/17 10:28:44;;;;;;;20.50;7.72;;;;;;;10.26;100.00;100162.94;1702135;84;21145;-94
2022/02/17 10:31:37;;;;;;;19.35;8.45;;;;;;;10.28;100.00;100155.45;1699563;83;21152;-96
2022/02/17 10:34:05;;;;;;;22.05;8.45;;;;;;;10.29;100.00;100147.08;1698764;83;21111;-94
2022/02/17 10:36:39;;;;;;;20.10;8.08;;;;;;;10.20;100.00;100138.69;1698137;84;21108;-92
2022/02/17 10:39:22;;;;;;;19.90;8.53;;;;;;;10.16;100.00;100148.94;1698447;84;21088;-94
2022/02/17 10:41:56;;;;;;;17.30;7.20;;;;;;;10.15;100.00;100142.75;1698209;84;21854;-94
2022/02/17 10:44:41;;;;;;;21.57;8.10;;;;;;;10.15;100.00;100139.26;1694981;84;21073;-94
2022/02/17 10:47:26;;;;;;;22.35;8.20;;;;;;;10.10;100.00;100129.27;1665851;85;21566;-91
2022/02/17 10:49:54;;;;;;;28.52;8.38;;;;;;;10.08;100.00;100115.81;1661339;86;21034;-92
2022/02/17 10:52:34;;;;;;;24.45;8.65;;;;;;;10.08;100.00;100110.42;1663179;85;21607;-95
2022/02/17 10:55:17;;;;;;;34.08;8.45;;;;;;;10.14;100.00;100107.46;1605348;89;21772;-95
2022/02/17 10:57:44;;;;;;;20.55;7.90;;;;;;;10.10;100.00;100094.82;1608587;89;21217;-94
2022/02/17 11:00:19;;;;;;;19.85;8.55;;;;;;;10.11;100.00;100103.16;1608911;89;21116;-95
2022/02/17 11:02:47;;;;;;;27.27;7.80;;;;;;;10.10;100.00;100095.63;1608411;89;21088;-92
2022/02/17 11:05:15;;;;;;;23.20;8.45;;;;;;;10.08;100.00;100088.34;1607363;88;21710;-94
2022/02/17 11:07:43;;;;;;;21.23;7.95;;;;;;;10.15;100.00;100076.78;1611696;87;21895;-94
2022/02/17 11:10:11;;;;;;;22.15;8.08;;;;;;;10.20;100.00;100061.95;1623543;87;21565;-95
2022/02/17 11:12:41;;;;;;;26.00;8.25;;;;;;;10.23;100.00;100059.26;1623577;88;21040;-93
2022/02/17 11:15:09;;;;;;;26.20;8.55;;;;;;;10.23;100.00;100056.05;1623736;87;21143;-93
2022/02/17 11:17:39;;;;;;;20.85;8.33;;;;;;;10.18;100.00;100040.44;1611563;87;21173;-93
2022/02/17 11:20:17;;;;;;;24.00;10.03;;;;;;;10.37;100.00;100060.91;1611291;89;21137;-93
2022/02/17 11:22:42;;;;;;;18.65;7.72;;;;;;;10.37;100.00;100048.23;1599455;86;21049;-94
2022/02/17 11:25:12;;;;;;;21.65;7.50;;;;;;;10.33;99.17;100049.88;1621065;88;21072;-93
2022/02/17 11:28:07;;;;;;;22.82;9.20;;;;;;;10.32;100.00;100036.12;1628800;88;21129;-93